createdAt,value
2023-03-17T00:00:46.306Z,46.73
2023-03-17T00:03:18.921Z,44.87
2023-03-17T00:05:45.882Z,44.23
2023-03-17T00:08:33.041Z,42.20
2023-03-17T00:10:59.581Z,39.67
2023-03-17T00:13:26.276Z,39.00
2023-03-17T00:15:57.139Z,39.97
2023-03-17T00:18:23.878Z,37.30
2023-03-17T00:20:50.462Z,40.53
2023-03-17T00:23:23.191Z,38.30
2023-03-17T00:25:49.910Z,39.93
2023-03-17T00:28:17.722Z,40.47
2023-03-17T00:30:44.821Z,39.90
2023-03-17T00:33:11.328Z,41.77
2023-03-17T00:35:38.421Z,41.10
2023-03-17T00:38:05.357Z,40.40
2023-03-17T00:40:32.697Z,40.10
2023-03-17T00:43:00.184Z,41.17
2023-03-17T00:45:27.213Z,40.03
2023-03-17T00:47:55.164Z,41.67
2023-03-17T00:50:25.544Z,45.20
2023-03-17T00:52:52.666Z,46.60
2023-03-17T00:55:19.795Z,41.97
2023-03-17T00:57:46.625Z,41.80
2023-03-17T01:00:24.750Z,42.03
2023-03-17T01:02:51.875Z,40.90
2023-03-17T01:05:18.645Z,41.07
2023-03-17T01:07:48.098Z,43.17
2023-03-17T01:10:16.548Z,44.43
2023-03-17T01:12:43.228Z,42.17
2023-03-17T01:15:09.988Z,42.80
2023-03-17T01:17:38.184Z,41.67
2023-03-17T01:20:06.737Z,41.07
2023-03-17T01:22:33.409Z,40.93
2023-03-17T01:24:59.893Z,42.83
2023-03-17T01:27:26.464Z,41.53
2023-03-17T01:29:54.014Z,40.87
2023-03-17T01:32:20.769Z,42.37
2023-03-17T01:34:47.423Z,38.60
2023-03-17T01:37:15.175Z,40.47
2023-03-17T01:39:42.052Z,39.67
2023-03-17T01:42:08.615Z,36.77
2023-03-17T01:44:35.199Z,37.83
2023-03-17T01:47:01.704Z,38.47
2023-03-17T01:49:30.072Z,38.80
2023-03-17T01:52:06.074Z,38.90
2023-03-17T01:54:40.196Z,35.73
2023-03-17T01:57:11.081Z,33.33
2023-03-17T01:59:39.780Z,34.67
2023-03-17T02:02:07.546Z,34.07
2023-03-17T02:04:34.222Z,34.63
2023-03-17T02:07:00.995Z,35.30
2023-03-17T02:09:27.568Z,34.57
2023-03-17T02:11:54.604Z,34.63
2023-03-17T02:14:21.241Z,35.10
2023-03-17T02:16:48.673Z,37.73
2023-03-17T02:19:15.228Z,34.13
2023-03-17T02:21:46.477Z,35.50
2023-03-17T02:24:24.683Z,34.50
2023-03-17T02:26:51.190Z,33.50
2023-03-17T02:29:18.911Z,30.90
2023-03-17T02:31:45.601Z,31.10
2023-03-17T02:34:12.105Z,30.83
2023-03-17T02:36:38.664Z,33.83
2023-03-17T02:39:06.266Z,31.33
2023-03-17T02:41:32.998Z,29.73
2023-03-17T02:43:59.555Z,32.00
2023-03-17T02:46:26.364Z,31.60
2023-03-17T02:48:52.939Z,31.77
2023-03-17T02:51:19.476Z,28.40
2023-03-17T02:53:46.109Z,25.20
2023-03-17T02:56:12.656Z,28.23
2023-03-17T02:58:39.191Z,26.67
2023-03-17T03:01:05.804Z,25.53
2023-03-17T03:03:33.001Z,27.10
2023-03-17T03:06:01.007Z,26.33
2023-03-17T03:08:29.310Z,26.17
2023-03-17T03:10:55.884Z,27.23
2023-03-17T03:13:22.482Z,28.87
2023-03-17T03:15:49.118Z,27.97
2023-03-17T03:18:15.668Z,27.23
2023-03-17T03:20:42.970Z,29.13
2023-03-17T03:23:09.475Z,27.77
2023-03-17T03:25:37.723Z,27.13
2023-03-17T03:28:05.177Z,27.10
2023-03-17T03:30:32.064Z,27.53
2023-03-17T03:32:58.915Z,28.37
2023-03-17T03:35:25.406Z,28.03
2023-03-17T03:37:51.879Z,27.70
2023-03-17T03:40:18.392Z,29.30
2023-03-17T03:42:44.959Z,27.63
2023-03-17T03:45:11.511Z,29.00
2023-03-17T03:47:37.986Z,29.93
2023-03-17T03:50:04.782Z,29.30
2023-03-17T03:52:31.254Z,29.30
2023-03-17T03:54:57.811Z,27.53
2023-03-17T03:57:24.327Z,27.33
2023-03-17T03:59:51.122Z,28.17
2023-03-17T04:02:18.456Z,28.63
2023-03-17T04:04:44.941Z,28.97
2023-03-17T04:07:11.444Z,29.83
2023-03-17T04:09:37.949Z,29.50
2023-03-17T04:12:04.627Z,30.73
2023-03-17T04:14:31.147Z,34.50
2023-03-17T04:16:57.647Z,34.60
2023-03-17T04:19:24.174Z,35.10
2023-03-17T04:21:52.890Z,32.07
2023-03-17T04:24:21.378Z,31.60
2023-03-17T04:26:47.848Z,31.33
2023-03-17T04:29:16.207Z,31.00
2023-03-17T04:31:42.832Z,29.27
2023-03-17T04:34:12.611Z,28.93
2023-03-17T04:36:39.084Z,29.57
2023-03-17T04:39:05.576Z,31.03
2023-03-17T04:41:32.463Z,27.53
2023-03-17T04:43:58.953Z,27.33
2023-03-17T04:46:25.718Z,28.87
2023-03-17T04:48:52.569Z,27.53
2023-03-17T04:51:19.078Z,30.50
2023-03-17T04:53:45.865Z,24.53
2023-03-17T04:56:12.459Z,29.23
2023-03-17T04:58:39.003Z,25.40
2023-03-17T05:01:05.707Z,25.13
2023-03-17T05:03:33.294Z,24.83
2023-03-17T05:06:00.240Z,24.03
2023-03-17T05:08:28.332Z,24.63
2023-03-17T05:10:56.177Z,24.73
2023-03-17T05:13:23.146Z,24.90
2023-03-17T05:15:50.181Z,25.70
2023-03-17T05:18:16.716Z,24.63
2023-03-17T05:20:43.172Z,24.10
2023-03-17T05:23:09.918Z,25.10
2023-03-17T05:25:36.938Z,23.97
2023-03-17T05:28:03.535Z,23.60
2023-03-17T05:30:30.759Z,22.70
2023-03-17T05:32:57.550Z,23.60
2023-03-17T05:35:24.161Z,25.17
2023-03-17T05:37:51.219Z,22.93
2023-03-17T05:40:17.785Z,22.93
2023-03-17T05:42:44.271Z,22.17
2023-03-17T05:45:11.068Z,20.30
2023-03-17T05:47:37.845Z,20.90
2023-03-17T05:50:04.923Z,21.43
2023-03-17T05:52:31.784Z,21.27
2023-03-17T05:54:58.333Z,21.10
2023-03-17T05:57:24.938Z,20.57
2023-03-17T05:59:51.482Z,19.77
2023-03-17T06:02:18.076Z,19.80
2023-03-17T06:04:44.686Z,20.37
2023-03-17T06:07:12.172Z,20.43
2023-03-17T06:09:38.657Z,17.37
2023-03-17T06:12:05.276Z,19.27
2023-03-17T06:14:31.765Z,18.90
2023-03-17T06:16:58.858Z,17.60
2023-03-17T06:19:25.875Z,17.23
2023-03-17T06:21:52.328Z,17.60
2023-03-17T06:24:19.362Z,17.87
2023-03-17T06:26:46.224Z,16.17
2023-03-17T06:29:12.813Z,16.93
2023-03-17T06:31:39.558Z,16.00
2023-03-17T06:34:06.095Z,16.33
2023-03-17T06:36:32.877Z,15.80
2023-03-17T06:38:59.785Z,13.77
2023-03-17T06:41:26.443Z,13.77
2023-03-17T06:43:52.973Z,13.93
2023-03-17T06:46:19.535Z,11.87
2023-03-17T06:48:46.608Z,13.57
2023-03-17T06:51:13.103Z,12.97
2023-03-17T06:53:39.556Z,12.13
2023-03-17T06:56:06.348Z,11.97
2023-03-17T06:58:33.264Z,12.37
2023-03-17T07:01:00.466Z,11.50
2023-03-17T07:03:27.154Z,11.33
2023-03-17T07:05:53.678Z,11.73
2023-03-17T07:08:20.182Z,10.87
2023-03-17T07:10:46.689Z,12.07
2023-03-17T07:13:13.739Z,12.17
2023-03-17T07:15:40.250Z,11.53
2023-03-17T07:18:07.120Z,11.40
2023-03-17T07:20:33.716Z,12.27
2023-03-17T07:23:00.471Z,11.67
2023-03-17T07:25:27.035Z,10.17
2023-03-17T07:27:53.580Z,9.70
2023-03-17T07:30:20.699Z,9.40
2023-03-17T07:32:47.795Z,9.50
2023-03-17T07:35:15.590Z,9.67
2023-03-17T07:37:42.483Z,9.20
2023-03-17T07:40:09.762Z,9.77
2023-03-17T07:42:36.618Z,10.23
2023-03-17T07:45:04.194Z,9.03
2023-03-17T07:47:30.701Z,9.80
2023-03-17T07:49:57.382Z,10.40
2023-03-17T07:52:23.930Z,10.00
2023-03-17T07:54:52.161Z,9.67
2023-03-17T07:57:18.756Z,8.90
2023-03-17T07:59:45.711Z,7.67
2023-03-17T08:02:16.450Z,7.97
2023-03-17T08:04:43.331Z,8.30
2023-03-17T08:07:10.546Z,7.63
2023-03-17T08:09:37.510Z,7.23
2023-03-17T08:12:04.539Z,7.10
2023-03-17T08:14:31.017Z,7.37
2023-03-17T08:16:57.670Z,6.50
2023-03-17T08:19:25.511Z,6.37
2023-03-17T08:21:52.047Z,6.30
2023-03-17T08:24:18.603Z,6.87
2023-03-17T08:26:48.184Z,5.63
2023-03-17T08:29:15.609Z,5.30
2023-03-17T08:31:43.177Z,4.93
2023-03-17T08:34:11.148Z,5.30
2023-03-17T08:36:37.688Z,5.30
2023-03-17T08:39:04.901Z,4.80
2023-03-17T08:41:32.111Z,5.23
2023-03-17T08:43:58.771Z,4.93
2023-03-17T08:46:27.209Z,5.10
2023-03-17T08:48:55.031Z,4.20
2023-03-17T08:51:24.359Z,4.83
2023-03-17T08:53:51.425Z,4.67
2023-03-17T08:56:17.978Z,3.90
2023-03-17T08:58:44.629Z,3.50
2023-03-17T09:01:11.615Z,3.67
2023-03-17T09:03:39.470Z,3.37
2023-03-17T09:06:07.096Z,3.23
2023-03-17T09:08:34.365Z,3.40
2023-03-17T09:11:01.357Z,3.30
2023-03-17T09:13:28.397Z,3.07
2023-03-17T09:15:56.240Z,2.73
2023-03-17T09:18:23.115Z,3.77
2023-03-17T09:20:49.622Z,3.40
2023-03-17T09:23:16.613Z,3.70
2023-03-17T09:25:44.408Z,2.93
2023-03-17T09:28:11.439Z,3.57
2023-03-17T09:30:37.986Z,3.43
2023-03-17T09:33:05.082Z,4.20
2023-03-17T09:35:32.464Z,3.60
2023-03-17T09:37:59.137Z,4.23
2023-03-17T09:40:32.597Z,3.37
2023-03-17T09:43:06.107Z,3.43
2023-03-17T09:45:37.488Z,3.90
2023-03-17T09:48:22.822Z,3.97
2023-03-17T09:50:49.473Z,5.07
2023-03-17T09:53:17.882Z,4.63
2023-03-17T09:55:44.419Z,5.43
2023-03-17T09:58:11.084Z,4.93
2023-03-17T10:00:37.816Z,5.20
2023-03-17T10:03:06.261Z,5.03
2023-03-17T10:05:35.065Z,5.70
2023-03-17T10:08:01.790Z,5.97
2023-03-17T10:10:48.392Z,5.27
2023-03-17T10:13:24.040Z,5.47
2023-03-17T10:15:50.631Z,6.30
2023-03-17T10:18:18.343Z,6.20
2023-03-17T10:20:51.387Z,6.03
2023-03-17T10:23:20.328Z,5.40
2023-03-17T10:25:46.927Z,5.83
2023-03-17T10:28:20.817Z,5.60
2023-03-17T10:30:47.402Z,6.10
2023-03-17T10:33:13.939Z,5.80
2023-03-17T10:35:40.751Z,6.50
2023-03-17T10:38:19.919Z,5.37
2023-03-17T10:40:47.970Z,4.50
2023-03-17T10:43:17.259Z,6.03
2023-03-17T10:45:47.926Z,5.17
2023-03-17T10:48:17.480Z,5.20
2023-03-17T10:50:45.979Z,4.47
2023-03-17T10:53:27.936Z,4.27
2023-03-17T10:56:06.945Z,4.57
2023-03-17T10:58:38.493Z,4.90
2023-03-17T11:01:11.195Z,4.83
2023-03-17T11:03:41.869Z,5.40
2023-03-17T11:06:08.854Z,4.47
2023-03-17T11:08:36.852Z,4.70
2023-03-17T11:11:04.902Z,4.50
2023-03-17T11:13:31.589Z,4.60
2023-03-17T11:16:04.545Z,3.90
2023-03-17T11:18:33.413Z,3.90
2023-03-17T11:21:01.517Z,4.13
2023-03-17T11:23:28.045Z,4.63
2023-03-17T11:26:03.684Z,4.87
2023-03-17T11:28:31.074Z,4.33
2023-03-17T11:31:16.360Z,4.20
2023-03-17T11:33:46.597Z,4.47
2023-03-17T11:36:15.824Z,4.67
2023-03-17T11:38:49.976Z,4.70
2023-03-17T11:41:26.203Z,4.00
2023-03-17T11:43:52.987Z,5.10
2023-03-17T11:46:21.379Z,3.43
2023-03-17T11:49:05.365Z,3.60
2023-03-17T11:51:50.849Z,4.73
2023-03-17T11:54:20.472Z,4.13
2023-03-17T11:56:51.878Z,4.30
2023-03-17T11:59:24.498Z,4.53
2023-03-17T12:01:54.935Z,4.30
2023-03-17T12:04:24.530Z,4.00
2023-03-17T12:06:56.145Z,4.33
2023-03-17T12:09:47.481Z,4.47
2023-03-17T12:12:16.076Z,3.83
2023-03-17T12:14:45.288Z,4.53
2023-03-17T12:17:16.225Z,4.53
2023-03-17T12:19:44.689Z,5.00
2023-03-17T12:22:14.431Z,3.63
2023-03-17T12:24:51.900Z,4.40
2023-03-17T12:27:34.477Z,4.13
2023-03-17T12:30:03.143Z,4.30
2023-03-17T12:32:29.667Z,3.88
2023-03-17T12:34:57.555Z,4.10
2023-03-17T12:37:25.018Z,4.38
2023-03-17T12:39:55.698Z,3.60
2023-03-17T12:42:31.485Z,3.83
2023-03-17T12:45:08.090Z,3.43
2023-03-17T12:47:43.818Z,4.05
2023-03-17T12:50:25.792Z,3.97
2023-03-17T12:52:58.502Z,3.58
2023-03-17T12:55:27.068Z,4.00
2023-03-17T12:58:12.379Z,4.35
2023-03-17T13:00:49.189Z,3.83
2023-03-17T13:03:26.201Z,3.80
2023-03-17T13:05:53.988Z,4.40
2023-03-17T13:08:24.445Z,3.17
2023-03-17T13:10:51.309Z,3.92
2023-03-17T13:13:40.840Z,4.20
2023-03-17T13:16:26.739Z,4.50
2023-03-17T13:19:06.154Z,3.70
2023-03-17T13:21:35.398Z,4.50
2023-03-17T13:24:18.669Z,4.07
2023-03-17T13:26:59.553Z,4.55
2023-03-17T13:29:32.397Z,4.53
2023-03-17T13:32:17.271Z,4.00
2023-03-17T13:34:50.766Z,4.30
2023-03-17T13:37:26.470Z,4.07
2023-03-17T13:39:59.041Z,3.88
2023-03-17T13:42:31.975Z,4.10
2023-03-17T13:45:08.084Z,4.35
2023-03-17T13:47:35.703Z,3.92
2023-03-17T13:50:16.063Z,3.43
2023-03-17T13:52:49.793Z,4.33
2023-03-17T13:55:20.471Z,4.20
2023-03-17T13:57:57.172Z,4.40
2023-03-17T14:00:27.372Z,4.00
2023-03-17T14:02:59.909Z,3.85
2023-03-17T14:05:27.481Z,3.90
2023-03-17T14:07:54.015Z,3.90
2023-03-17T14:10:21.434Z,3.65
2023-03-17T14:12:59.189Z,3.13
2023-03-17T14:15:42.158Z,3.42
2023-03-17T14:18:11.196Z,3.33
2023-03-17T14:20:37.784Z,2.85
2023-03-17T14:23:04.324Z,3.60
2023-03-17T14:25:34.327Z,3.20
2023-03-17T14:28:00.895Z,3.50
2023-03-17T14:30:31.820Z,3.45
2023-03-17T14:33:14.083Z,3.25
2023-03-17T14:35:42.343Z,3.30
2023-03-17T14:38:19.970Z,3.08
2023-03-17T14:40:46.739Z,3.38
2023-03-17T14:43:13.263Z,3.25
2023-03-17T14:45:50.039Z,3.75
2023-03-17T14:48:17.464Z,3.20
2023-03-17T14:50:49.367Z,3.20
2023-03-17T14:53:16.167Z,2.67
2023-03-17T14:55:43.505Z,2.72
2023-03-17T14:58:20.337Z,3.10
2023-03-17T15:00:47.408Z,3.25
2023-03-17T15:03:17.279Z,3.53
2023-03-17T15:05:46.431Z,4.30
2023-03-17T15:08:31.659Z,2.83
2023-03-17T15:11:02.144Z,3.60
2023-03-17T15:13:28.862Z,3.20
2023-03-17T15:15:56.147Z,3.42
2023-03-17T15:18:23.621Z,3.30
2023-03-17T15:20:50.197Z,3.15
2023-03-17T15:23:18.363Z,2.63
2023-03-17T15:25:50.557Z,3.08
2023-03-17T15:28:20.788Z,2.65
2023-03-17T15:30:49.986Z,3.03
2023-03-17T15:33:18.168Z,2.63
2023-03-17T15:35:44.730Z,2.72
2023-03-17T15:38:11.624Z,2.93
2023-03-17T15:40:38.897Z,2.28
2023-03-17T15:43:05.705Z,2.87
2023-03-17T15:45:33.263Z,3.30
2023-03-17T15:47:59.824Z,3.20
2023-03-17T15:50:28.840Z,3.03
2023-03-17T15:52:58.651Z,3.40
2023-03-17T15:55:32.203Z,3.40
2023-03-17T15:57:58.750Z,3.00
2023-03-17T16:00:26.673Z,3.45
2023-03-17T16:02:56.271Z,3.17
2023-03-17T16:05:26.679Z,2.97
2023-03-17T16:07:53.664Z,3.78
2023-03-17T16:10:27.230Z,3.33
2023-03-17T16:12:53.723Z,3.55
2023-03-17T16:15:24.293Z,3.47
2023-03-17T16:17:54.604Z,3.58
2023-03-17T16:20:21.193Z,4.43
2023-03-17T16:22:47.861Z,4.00
2023-03-17T16:25:17.806Z,3.97
2023-03-17T16:27:44.317Z,3.35
2023-03-17T16:30:15.474Z,3.95
2023-03-17T16:32:41.966Z,2.90
2023-03-17T16:35:18.612Z,3.10
2023-03-17T16:37:45.324Z,3.22
2023-03-17T16:40:22.400Z,3.55
2023-03-17T16:42:49.087Z,3.70
2023-03-17T16:45:16.394Z,3.83
2023-03-17T16:47:42.860Z,4.35
2023-03-17T16:50:16.485Z,4.05
2023-03-17T16:52:43.157Z,3.65
2023-03-17T16:55:09.927Z,3.83
2023-03-17T16:57:37.206Z,3.97
2023-03-17T17:00:07.318Z,4.55
2023-03-17T17:02:33.887Z,4.53
2023-03-17T17:05:02.228Z,4.28
2023-03-17T17:07:28.974Z,4.47
2023-03-17T17:09:55.469Z,5.25
2023-03-17T17:12:22.014Z,7.50
2023-03-17T17:14:48.485Z,26.07
2023-03-17T17:17:15.026Z,23.77
2023-03-17T17:19:41.923Z,21.27
2023-03-17T17:22:10.514Z,19.83
2023-03-17T17:24:37.009Z,19.02
2023-03-17T17:27:03.548Z,18.17
2023-03-17T17:29:32.348Z,17.50
2023-03-17T17:31:59.088Z,16.00
2023-03-17T17:34:25.641Z,12.10
2023-03-17T17:36:52.151Z,13.00
2023-03-17T17:39:18.668Z,10.10
2023-03-17T17:41:45.356Z,10.23
2023-03-17T17:44:11.909Z,9.90
2023-03-17T17:46:38.629Z,10.43
2023-03-17T17:49:05.333Z,10.67
2023-03-17T17:51:32.878Z,10.97
2023-03-17T17:53:59.516Z,10.97
2023-03-17T17:56:26.152Z,9.73
2023-03-17T17:58:52.687Z,9.13
2023-03-17T18:01:22.450Z,8.17
2023-03-17T18:03:49.131Z,8.17
2023-03-17T18:06:17.241Z,8.43
2023-03-17T18:08:44.427Z,7.30
2023-03-17T18:11:11.097Z,7.20
2023-03-17T18:13:39.111Z,7.47
2023-03-17T18:16:09.872Z,7.80
2023-03-17T18:18:38.143Z,7.53
2023-03-17T18:21:04.673Z,7.23
2023-03-17T18:23:31.315Z,6.97
2023-03-17T18:26:01.476Z,7.83
2023-03-17T18:28:28.219Z,7.83
2023-03-17T18:30:55.102Z,7.63
2023-03-17T18:33:21.776Z,7.13
2023-03-17T18:35:49.300Z,8.70
2023-03-17T18:38:16.310Z,10.87
2023-03-17T18:40:42.907Z,13.97
2023-03-17T18:43:09.383Z,14.13
2023-03-17T18:45:36.336Z,13.10
2023-03-17T18:48:03.145Z,13.17
2023-03-17T18:50:30.154Z,13.23
2023-03-17T18:52:57.337Z,12.73
2023-03-17T18:55:23.904Z,10.77
2023-03-17T18:57:50.411Z,10.93
2023-03-17T19:00:18.682Z,10.97
2023-03-17T19:02:45.825Z,10.80
2023-03-17T19:05:12.968Z,13.53
2023-03-17T19:07:40.986Z,14.27
2023-03-17T19:10:08.148Z,13.70
2023-03-17T19:12:34.665Z,11.73
2023-03-17T19:15:01.837Z,12.20
2023-03-17T19:17:28.603Z,11.20
2023-03-17T19:19:57.168Z,10.00
2023-03-17T19:22:24.007Z,10.07
2023-03-17T19:24:50.670Z,8.97
2023-03-17T19:27:17.542Z,9.73
2023-03-17T19:29:44.321Z,10.60
2023-03-17T19:32:10.968Z,8.53
2023-03-17T19:34:37.482Z,8.27
2023-03-17T19:37:04.334Z,7.77
2023-03-17T19:39:31.511Z,8.83
2023-03-17T19:41:59.421Z,8.13
2023-03-17T19:44:26.083Z,8.00
2023-03-17T19:46:52.700Z,7.97
2023-03-17T19:49:21.196Z,8.20
2023-03-17T19:51:49.146Z,8.33
2023-03-17T19:54:16.047Z,8.43
2023-03-17T19:56:42.659Z,8.30
2023-03-17T19:59:09.584Z,8.90
2023-03-17T20:01:38.058Z,8.17
2023-03-17T20:04:06.995Z,9.60
2023-03-17T20:06:34.726Z,9.50
2023-03-17T20:09:04.406Z,8.93
2023-03-17T20:11:34.138Z,9.60
2023-03-17T20:14:03.780Z,9.90
2023-03-17T20:16:33.731Z,12.87
2023-03-17T20:19:00.813Z,12.73
2023-03-17T20:21:27.457Z,12.13
2023-03-17T20:23:54.093Z,13.27
2023-03-17T20:26:20.637Z,12.90
2023-03-17T20:28:47.563Z,13.53
2023-03-17T20:31:14.099Z,13.47
2023-03-17T20:33:40.746Z,13.13
2023-03-17T20:36:07.982Z,12.07
2023-03-17T20:38:37.202Z,12.27
2023-03-17T20:41:07.771Z,13.20
2023-03-17T20:43:36.460Z,12.27
2023-03-17T20:46:06.029Z,12.60
2023-03-17T20:48:33.034Z,12.13
2023-03-17T20:51:00.423Z,12.27
2023-03-17T20:53:27.082Z,11.63
2023-03-17T20:55:55.078Z,10.60
2023-03-17T20:58:21.673Z,10.37
2023-03-17T21:00:49.382Z,10.80
2023-03-17T21:03:18.041Z,10.33
2023-03-17T21:05:45.900Z,12.10
2023-03-17T21:08:12.478Z,11.33
2023-03-17T21:10:39.088Z,10.97
2023-03-17T21:13:05.718Z,10.93
2023-03-17T21:15:32.245Z,11.77
2023-03-17T21:17:58.785Z,11.47
2023-03-17T21:20:26.307Z,11.37
2023-03-17T21:22:52.943Z,12.53
2023-03-17T21:25:20.170Z,13.57
2023-03-17T21:27:46.860Z,12.00
2023-03-17T21:30:14.372Z,12.70
2023-03-17T21:32:41.982Z,11.80
2023-03-17T21:35:08.840Z,12.80
2023-03-17T21:37:35.534Z,12.20
2023-03-17T21:40:02.156Z,12.43
2023-03-17T21:42:29.166Z,12.40
2023-03-17T21:44:55.743Z,12.73
2023-03-17T21:47:22.271Z,14.07
2023-03-17T21:49:48.788Z,14.17
2023-03-17T21:52:15.423Z,13.80
2023-03-17T21:54:42.120Z,14.37
2023-03-17T21:57:08.732Z,13.50
2023-03-17T21:59:35.861Z,13.57
2023-03-17T22:02:02.994Z,14.10
2023-03-17T22:04:30.005Z,15.83
2023-03-17T22:06:56.559Z,13.73
2023-03-17T22:09:23.119Z,13.47
2023-03-17T22:11:49.930Z,13.07
2023-03-17T22:14:20.151Z,13.73
2023-03-17T22:16:47.379Z,12.30
2023-03-17T22:19:14.056Z,12.47
2023-03-17T22:21:40.710Z,13.13
2023-03-17T22:24:07.432Z,12.17
2023-03-17T22:26:34.319Z,13.10
2023-03-17T22:29:01.540Z,13.53
2023-03-17T22:31:28.506Z,13.17
2023-03-17T22:33:56.349Z,13.30
2023-03-17T22:36:23.214Z,14.00
2023-03-17T22:38:49.771Z,13.70
2023-03-17T22:41:17.732Z,13.07
2023-03-17T22:43:44.287Z,13.83
2023-03-17T22:46:11.262Z,14.27
2023-03-17T22:48:38.067Z,14.27
2023-03-17T22:51:08.544Z,13.80
2023-03-17T22:53:35.229Z,14.00
2023-03-17T22:56:01.761Z,13.80
2023-03-17T22:58:28.369Z,13.60
2023-03-17T23:00:55.433Z,13.87
2023-03-17T23:03:22.640Z,12.83
2023-03-17T23:05:50.519Z,14.40
2023-03-17T23:08:18.024Z,13.80
2023-03-17T23:10:44.651Z,15.37
2023-03-17T23:13:11.582Z,15.20
2023-03-17T23:15:38.143Z,15.07
2023-03-17T23:18:04.836Z,14.80
2023-03-17T23:20:31.650Z,15.10
2023-03-17T23:22:58.316Z,15.27
2023-03-17T23:25:24.953Z,16.20
2023-03-17T23:27:51.717Z,15.63
2023-03-17T23:30:18.911Z,16.23
2023-03-17T23:32:45.571Z,16.47
2023-03-17T23:35:12.770Z,14.33
2023-03-17T23:37:39.295Z,14.03
2023-03-17T23:40:06.504Z,15.03
2023-03-17T23:42:33.217Z,14.27
2023-03-17T23:44:59.787Z,14.50
2023-03-17T23:47:27.133Z,14.17
2023-03-17T23:49:53.744Z,14.53
2023-03-17T23:52:21.222Z,13.20
2023-03-17T23:54:48.095Z,13.87
2023-03-17T23:57:14.683Z,13.63
2023-03-17T23:59:41.479Z,13.03
